Terminal Aerodrome Forecast
Issued by NWS

Home | Current Version | Previous Version | Text Only | Print | Product List | Glossary On
Versions: 1 2 3 4 5 6 7 8 9 10 11 12 13 14 15 16 17 18
000
FTUS41 KBGM 161126
TAFITH
TAF
KITH 161126Z 1612/1712 16009KT 6SM -SN OVC025
     FM161700 17008KT 1SM -SN OVC015
      TEMPO 1620/1624 1/2SM SN OVC007
     FM170300 23006KT 5SM -SN OVC012
     FM170800 29007KT P6SM -SN OVC015=

USA.gov is the U.S. government's official web portal to all federal, state and local government web resources and services.